Time;durP1;ratioP1;P1;durP2;ratioP2;P2;SDS_P1;SDS_P2;PMS_P1;PMS_P2;Temp;Humidity;BMP_temperature;BMP_pressure;BME280_temperature;BME280_humidity;BME280_pressure;Samples;Min_cycle;Max_cycle;Signal;HPM_P1;HPM_P2
2023/12/08 00:00:47;;;;;;;20.20;14.90;;;;;;;-2.64;100.00;101046.09;88358;282;138495;-69
2023/12/08 00:02:49;;;;;;;21.50;15.40;;;;;;;-2.62;100.00;101044.44;88594;276;24195;-69
2023/12/08 00:04:54;;;;;;;22.10;15.80;;;;;;;-2.63;100.00;101044.29;88613;284;137826;-67
2023/12/08 00:06:56;;;;;;;18.70;14.80;;;;;;;-2.65;100.00;101043.21;88538;276;24057;-71
2023/12/08 00:08:58;;;;;;;21.80;15.80;;;;;;;-2.66;100.00;101041.36;88354;276;137668;-71
2023/12/08 00:11:00;;;;;;;21.30;15.40;;;;;;;-2.65;100.00;101043.04;88452;280;22566;-70
2023/12/08 00:13:02;;;;;;;21.70;15.50;;;;;;;-2.59;100.00;101043.36;88208;282;138418;-70
2023/12/08 00:15:05;;;;;;;20.70;14.40;;;;;;;-2.52;100.00;101038.65;88438;275;22556;-68
2023/12/08 00:17:08;;;;;;;21.10;14.50;;;;;;;-2.47;100.00;101039.41;88509;282;137404;-68
2023/12/08 00:19:10;;;;;;;15.30;12.80;;;;;;;-2.42;100.00;101036.89;88458;283;24580;-68
2023/12/08 00:21:13;;;;;;;19.20;14.70;;;;;;;-2.51;100.00;101021.34;88442;283;138039;-69
2023/12/08 00:23:18;;;;;;;20.80;14.60;;;;;;;-2.45;100.00;101035.64;88405;283;25153;-69
2023/12/08 00:25:19;;;;;;;23.40;16.70;;;;;;;-2.49;100.00;101033.06;88257;279;136651;-70
2023/12/08 00:27:22;;;;;;;21.60;15.50;;;;;;;-2.50;100.00;101033.88;88407;280;22527;-70
2023/12/08 00:29:25;;;;;;;23.00;15.80;;;;;;;-2.47;100.00;101032.42;88325;276;137023;-68
2023/12/08 00:31:27;;;;;;;19.20;15.50;;;;;;;-2.43;100.00;101025.95;88439;283;23677;-68
2023/12/08 00:33:31;;;;;;;17.00;13.00;;;;;;;-2.37;100.00;101022.98;88277;277;137394;-70
2023/12/08 00:35:33;;;;;;;20.00;13.90;;;;;;;-2.33;100.00;101024.52;88458;275;22542;-69
2023/12/08 00:37:35;;;;;;;22.70;15.40;;;;;;;-2.32;100.00;101020.67;88326;282;137183;-68
2023/12/08 00:39:37;;;;;;;19.80;15.00;;;;;;;-2.38;100.00;101019.55;88365;279;22702;-69
2023/12/08 00:41:39;;;;;;;23.00;16.10;;;;;;;-2.40;100.00;101022.84;88195;281;139075;-69
2023/12/08 00:43:41;;;;;;;20.30;15.10;;;;;;;-2.45;100.00;101023.44;88411;284;22557;-69
2023/12/08 00:45:43;;;;;;;21.30;14.90;;;;;;;-2.48;100.00;101021.02;88335;275;136490;-68
2023/12/08 00:47:45;;;;;;;23.20;15.80;;;;;;;-2.46;100.00;101021.27;88452;275;23537;-70
2023/12/08 00:49:48;;;;;;;18.80;13.50;;;;;;;-2.40;100.00;101015.66;89273;275;137251;-71
2023/12/08 00:51:50;;;;;;;20.00;15.00;;;;;;;-2.42;100.00;101003.27;88445;282;24052;-69
2023/12/08 00:53:52;;;;;;;19.20;14.50;;;;;;;-2.32;100.00;101013.33;87682;282;868533;-70
2023/12/08 00:55:54;;;;;;;17.20;13.90;;;;;;;-2.35;100.00;101004.78;88396;276;24018;-68
2023/12/08 00:57:56;;;;;;;17.80;14.90;;;;;;;-2.41;100.00;101008.09;88179;282;136602;-68
2023/12/08 00:59:58;;;;;;;20.50;15.10;;;;;;;-2.45;100.00;101005.88;88382;283;22608;-69
2023/12/08 01:02:01;;;;;;;20.60;15.50;;;;;;;-2.56;100.00;100986.51;88505;282;137676;-71
2023/12/08 01:04:03;;;;;;;19.00;14.90;;;;;;;-2.43;100.00;101006.30;88284;282;137679;-67
2023/12/08 01:06:06;;;;;;;15.70;13.20;;;;;;;-2.38;100.00;101005.45;88620;279;25230;-69
2023/12/08 01:08:08;;;;;;;18.80;14.10;;;;;;;-2.33;100.00;100998.95;88603;281;137539;-68
2023/12/08 01:10:10;;;;;;;17.80;13.60;;;;;;;-2.31;100.00;101000.91;88454;282;24052;-71
2023/12/08 01:12:11;;;;;;;17.00;13.80;;;;;;;-2.33;100.00;100995.95;88346;279;136363;-67
2023/12/08 01:14:13;;;;;;;20.40;14.80;;;;;;;-2.37;100.00;100994.79;88355;276;24155;-66
2023/12/08 01:16:15;;;;;;;19.60;14.70;;;;;;;-2.40;100.00;100996.34;88315;282;136935;-63
2023/12/08 01:18:17;;;;;;;20.70;15.90;;;;;;;-2.42;100.00;100994.41;88455;282;24138;-69
2023/12/08 01:20:21;;;;;;;21.20;13.30;;;;;;;-2.43;100.00;100993.02;88348;283;137616;-72
2023/12/08 01:22:27;;;;;;;16.20;13.20;;;;;;;-2.39;100.00;100990.23;88542;275;25213;-73
2023/12/08 01:24:29;;;;;;;19.00;13.40;;;;;;;-2.33;100.00;100989.02;88536;279;137425;-72
2023/12/08 01:26:31;;;;;;;18.60;13.70;;;;;;;-2.29;100.00;100994.85;88623;278;22527;-68
2023/12/08 01:28:34;;;;;;;23.30;13.30;;;;;;;-2.25;100.00;100991.00;88445;275;138518;-70
2023/12/08 01:30:36;;;;;;;19.10;13.00;;;;;;;-2.27;100.00;100990.23;88516;279;25084;-72
2023/12/08 01:32:38;;;;;;;18.20;14.30;;;;;;;-2.32;100.00;100985.27;88307;280;136192;-71
2023/12/08 01:34:40;;;;;;;17.00;14.00;;;;;;;-2.35;100.00;100985.65;88464;283;25253;-70
2023/12/08 01:36:42;;;;;;;17.70;14.40;;;;;;;-2.37;100.00;100985.23;88343;276;136543;-69
2023/12/08 01:38:46;;;;;;;21.60;13.70;;;;;;;-2.35;100.00;100984.77;88416;276;22530;-71
2023/12/08 01:40:47;;;;;;;18.80;13.60;;;;;;;-2.29;100.00;100982.34;88441;281;137454;-69
2023/12/08 01:42:49;;;;;;;16.70;13.80;;;;;;;-2.22;100.00;100981.38;88600;274;22547;-70
2023/12/08 01:44:51;;;;;;;19.00;13.10;;;;;;;-2.16;100.00;100981.23;88362;281;137481;-69
2023/12/08 01:46:54;;;;;;;18.20;14.10;;;;;;;-2.13;100.00;100981.55;88374;276;24186;-70
2023/12/08 01:48:57;;;;;;;15.70;12.20;;;;;;;-2.17;100.00;100981.81;88338;279;137313;-69
2023/12/08 01:51:03;;;;;;;15.50;13.10;;;;;;;-2.25;100.00;100977.38;88397;276;24030;-69
2023/12/08 01:53:06;;;;;;;18.10;12.60;;;;;;;-2.29;100.00;100984.96;88420;278;136683;-70
2023/12/08 01:55:08;;;;;;;16.70;13.30;;;;;;;-2.33;100.00;100984.16;88516;282;24037;-66
2023/12/08 01:57:10;;;;;;;15.40;12.50;;;;;;;-2.32;100.00;100984.78;88379;275;137156;-71
2023/12/08 01:59:14;;;;;;;17.00;13.50;;;;;;;-2.28;100.00;100981.77;88502;282;22541;-70
2023/12/08 02:01:17;;;;;;;15.70;11.60;;;;;;;-2.25;100.00;100981.77;88284;282;137171;-70
2023/12/08 02:03:21;;;;;;;18.70;12.80;;;;;;;-2.21;100.00;100983.40;88463;279;22570;-73
2023/12/08 02:05:25;;;;;;;15.20;11.60;;;;;;;-2.17;100.00;100980.91;88381;282;136785;-71
2023/12/08 02:07:31;;;;;;;17.30;12.30;;;;;;;-2.17;100.00;100982.66;88581;279;22527;-71
2023/12/08 02:09:33;;;;;;;17.00;13.10;;;;;;;-2.19;100.00;100981.73;88412;280;136489;-68
2023/12/08 02:11:37;;;;;;;17.10;13.30;;;;;;;-2.22;100.00;100982.95;88379;282;22545;-69
2023/12/08 02:13:40;;;;;;;16.40;12.50;;;;;;;-2.25;100.00;100985.20;88331;276;136433;-68
2023/12/08 02:15:45;;;;;;;16.60;12.40;;;;;;;-2.22;100.00;100986.42;88443;275;25238;-68
2023/12/08 02:17:49;;;;;;;18.40;11.80;;;;;;;-2.16;100.00;100983.63;88508;279;138923;-70
2023/12/08 02:19:51;;;;;;;15.30;12.10;;;;;;;-2.12;100.00;100981.52;88616;279;22600;-69
2023/12/08 02:21:53;;;;;;;14.40;11.30;;;;;;;-2.09;100.00;100982.05;88414;274;139142;-68
2023/12/08 02:23:55;;;;;;;13.20;11.50;;;;;;;-2.07;100.00;100982.09;88509;282;23649;-68
2023/12/08 02:25:57;;;;;;;15.80;11.60;;;;;;;-2.09;100.00;100985.19;88508;282;136367;-68
2023/12/08 02:27:59;;;;;;;18.40;11.80;;;;;;;-2.12;100.00;100978.37;88524;282;24058;-69
2023/12/08 02:30:03;;;;;;;16.00;12.10;;;;;;;-2.13;100.00;100982.66;88441;279;22593;-67
2023/12/08 02:32:29;;;;;;;16.70;12.60;;;;;;;-2.16;100.00;100979.14;88270;283;137176;-69
2023/12/08 02:34:33;;;;;;;15.70;11.10;;;;;;;-2.11;100.00;100980.41;88268;283;24193;-68
2023/12/08 02:36:35;;;;;;;11.80;9.70;;;;;;;-2.09;100.00;100978.23;88335;279;137685;-68
2023/12/08 02:38:39;;;;;;;14.30;10.90;;;;;;;-2.05;100.00;100985.60;88668;273;22530;-68
2023/12/08 02:40:42;;;;;;;13.50;11.20;;;;;;;-2.05;100.00;100991.52;88558;273;137025;-68
2023/12/08 02:42:44;;;;;;;15.80;11.90;;;;;;;-2.07;100.00;100983.47;88477;282;23457;-68
2023/12/08 02:44:46;;;;;;;14.40;11.90;;;;;;;-2.13;100.00;100985.27;88216;276;137909;-68
2023/12/08 02:46:49;;;;;;;15.00;11.10;;;;;;;-2.21;100.00;100978.91;88380;282;25226;-67
2023/12/08 02:48:51;;;;;;;16.70;10.60;;;;;;;-2.18;100.00;100984.14;88508;282;137674;-65
2023/12/08 02:50:56;;;;;;;14.10;10.30;;;;;;;-2.13;100.00;100983.86;88518;280;22552;-68
2023/12/08 02:52:58;;;;;;;13.00;10.70;;;;;;;-2.10;100.00;100988.71;88395;276;137392;-66
2023/12/08 02:55:01;;;;;;;15.20;11.00;;;;;;;-2.07;100.00;100982.78;88421;282;22548;-67
2023/12/08 02:57:03;;;;;;;11.80;10.10;;;;;;;-2.03;100.00;100986.23;88336;282;137402;-65
2023/12/08 02:59:06;;;;;;;13.60;10.70;;;;;;;-2.01;100.00;100985.53;88397;282;24126;-67
2023/12/08 03:01:07;;;;;;;13.60;10.30;;;;;;;-2.00;100.00;100983.06;88272;282;136530;-68
2023/12/08 03:03:10;;;;;;;11.80;9.70;;;;;;;-2.03;100.00;100992.98;88354;284;22603;-64
2023/12/08 03:05:15;;;;;;;12.00;9.70;;;;;;;-2.06;100.00;100993.73;88339;280;136418;-69
2023/12/08 03:07:17;;;;;;;13.70;11.10;;;;;;;-2.08;100.00;100987.91;88482;283;22718;-67
2023/12/08 03:09:19;;;;;;;11.90;10.10;;;;;;;-2.03;100.00;100988.85;88313;283;138788;-69
2023/12/08 03:11:21;;;;;;;16.10;11.30;;;;;;;-2.00;100.00;100987.62;88401;283;23897;-66
2023/12/08 03:13:23;;;;;;;12.60;9.20;;;;;;;-1.96;100.00;100989.80;88383;282;138555;-69
2023/12/08 03:15:25;;;;;;;11.40;9.50;;;;;;;-1.93;100.00;100983.17;88399;282;22556;-68
2023/12/08 03:17:27;;;;;;;14.30;9.80;;;;;;;-1.95;100.00;100986.42;88248;275;136116;-69
2023/12/08 03:19:30;;;;;;;10.10;8.60;;;;;;;-2.08;100.00;100974.45;88536;281;24049;-70
2023/12/08 03:21:32;;;;;;;15.40;10.40;;;;;;;-2.04;100.00;100994.27;88214;283;136082;-69
2023/12/08 03:23:34;;;;;;;11.60;9.00;;;;;;;-2.05;100.00;100995.17;88359;282;25321;-68
2023/12/08 03:25:40;;;;;;;12.60;10.00;;;;;;;-2.01;100.00;100992.50;88363;282;137190;-68
2023/12/08 03:27:42;;;;;;;13.30;9.60;;;;;;;-1.97;100.00;100991.77;88366;282;22561;-67
2023/12/08 03:29:44;;;;;;;12.00;9.20;;;;;;;-1.95;100.00;100990.77;88334;282;137296;-67
2023/12/08 03:31:46;;;;;;;11.30;8.90;;;;;;;-1.96;100.00;100982.81;88377;283;22643;-68
2023/12/08 03:33:49;;;;;;;11.00;8.80;;;;;;;-2.00;100.00;100985.36;88234;282;136565;-67
2023/12/08 03:35:51;;;;;;;12.40;10.10;;;;;;;-2.03;100.00;100982.91;88459;283;24106;-68
2023/12/08 03:37:53;;;;;;;11.90;8.80;;;;;;;-2.08;100.00;100985.59;88318;283;137933;-69
2023/12/08 03:39:55;;;;;;;12.90;9.30;;;;;;;-2.05;100.00;100986.67;88367;279;24022;-67
2023/12/08 03:41:57;;;;;;;10.10;8.70;;;;;;;-2.01;100.00;100987.65;88316;280;136802;-69
2023/12/08 03:43:59;;;;;;;11.60;8.60;;;;;;;-1.98;100.00;100986.40;88345;282;24046;-69
2023/12/08 03:46:02;;;;;;;9.70;8.10;;;;;;;-1.97;100.00;100984.41;88268;281;136877;-67
2023/12/08 03:48:04;;;;;;;13.80;9.60;;;;;;;-1.96;100.00;100981.05;88316;282;138381;-68
2023/12/08 03:50:07;;;;;;;12.80;9.40;;;;;;;-1.98;100.00;100978.59;88393;276;25147;-68
2023/12/08 03:52:09;;;;;;;12.20;8.90;;;;;;;-2.02;100.00;100980.20;88373;282;136629;-67
2023/12/08 03:54:11;;;;;;;11.80;9.50;;;;;;;-2.05;100.00;100975.15;88384;280;22531;-68
2023/12/08 03:56:13;;;;;;;11.50;8.60;;;;;;;-2.06;100.00;100978.02;88377;279;137004;-64
2023/12/08 03:58:15;;;;;;;10.90;9.10;;;;;;;-2.03;100.00;100977.30;88396;283;22776;-67
2023/12/08 04:00:17;;;;;;;11.10;8.90;;;;;;;-1.99;100.00;100976.02;88258;283;137367;-70
2023/12/08 04:02:19;;;;;;;10.60;8.20;;;;;;;-1.97;100.00;100972.08;88509;276;24616;-68
2023/12/08 04:04:22;;;;;;;8.80;7.90;;;;;;;-1.96;100.00;100970.45;88318;282;137128;-70
2023/12/08 04:06:28;;;;;;;13.50;9.20;;;;;;;-1.98;100.00;100965.20;88577;276;24167;-69
2023/12/08 04:08:30;;;;;;;11.20;8.80;;;;;;;-2.03;100.00;100963.42;88352;282;136411;-68
2023/12/08 04:10:33;;;;;;;12.30;9.60;;;;;;;-2.07;100.00;100970.24;88410;284;25137;-70
2023/12/08 04:12:35;;;;;;;9.70;8.30;;;;;;;-2.08;100.00;100967.71;88395;283;136677;-67
2023/12/08 04:14:37;;;;;;;13.70;8.80;;;;;;;-2.05;100.00;100969.27;88422;276;22530;-70
2023/12/08 04:16:39;;;;;;;12.00;8.70;;;;;;;-2.02;100.00;100974.10;88372;276;137392;-67
2023/12/08 04:18:41;;;;;;;10.00;8.80;;;;;;;-2.00;100.00;100969.80;88711;282;23980;-68
2023/12/08 04:20:44;;;;;;;9.40;7.90;;;;;;;-1.98;100.00;100969.52;88430;279;137109;-72
2023/12/08 04:22:46;;;;;;;10.40;8.10;;;;;;;-1.95;100.00;100970.42;88434;283;22548;-67
2023/12/08 04:24:48;;;;;;;11.00;8.00;;;;;;;-1.97;100.00;100973.61;88303;282;136317;-67
2023/12/08 04:26:50;;;;;;;13.60;9.20;;;;;;;-2.01;100.00;100975.09;88400;282;22776;-69
2023/12/08 04:28:53;;;;;;;12.10;8.50;;;;;;;-2.06;100.00;100978.54;88322;283;136671;-68
2023/12/08 04:30:56;;;;;;;11.40;8.30;;;;;;;-2.16;100.00;100966.80;88396;279;22978;-70
2023/12/08 04:32:58;;;;;;;10.60;8.60;;;;;;;-2.03;100.00;100984.95;88378;279;137060;-67
2023/12/08 04:35:00;;;;;;;9.50;8.20;;;;;;;-1.98;100.00;100980.13;88460;278;22615;-68
2023/12/08 04:37:04;;;;;;;9.50;7.60;;;;;;;-1.92;100.00;100989.23;88266;282;137332;-70
2023/12/08 04:39:08;;;;;;;12.70;9.30;;;;;;;-1.89;100.00;100981.58;88585;279;24036;-66
2023/12/08 04:41:10;;;;;;;11.40;9.20;;;;;;;-1.91;100.00;100977.85;88326;284;136360;-66
2023/12/08 04:43:12;;;;;;;10.50;8.00;;;;;;;-1.98;100.00;100979.30;88414;284;22552;-69
2023/12/08 04:45:14;;;;;;;13.10;8.30;;;;;;;-2.02;100.00;100980.38;88304;277;136826;-71
2023/12/08 04:47:17;;;;;;;14.60;9.50;;;;;;;-2.05;100.00;100972.38;88469;284;25204;-71
2023/12/08 04:49:19;;;;;;;10.50;7.30;;;;;;;-2.02;100.00;100979.17;88225;276;139619;-67
2023/12/08 04:51:22;;;;;;;10.50;7.90;;;;;;;-1.97;100.00;100978.37;88489;277;22534;-68
2023/12/08 04:53:24;;;;;;;10.60;7.90;;;;;;;-1.94;100.00;100979.55;88293;280;136896;-72
2023/12/08 04:57:02;;;;;;;10.40;8.10;;;;;;;-2.04;100.00;100984.36;86921;302;603782;-70
2023/12/08 04:59:08;;;;;;;13.00;10.20;;;;;;;-2.11;100.00;100984.93;89575;292;24215;-70
2023/12/08 05:01:13;;;;;;;10.90;9.00;;;;;;;-2.14;100.00;100987.90;87822;285;136120;-71
2023/12/08 05:03:15;;;;;;;9.80;7.70;;;;;;;-2.15;100.00;100981.31;88103;277;25182;-68
2023/12/08 05:05:17;;;;;;;14.10;8.40;;;;;;;-2.06;100.00;100976.48;88152;276;136133;-68
2023/12/08 05:07:21;;;;;;;10.50;7.60;;;;;;;-2.01;100.00;100979.09;88309;276;22544;-69
2023/12/08 05:09:23;;;;;;;11.40;8.40;;;;;;;-1.98;100.00;100984.87;88103;278;136458;-70
2023/12/08 05:11:26;;;;;;;8.70;7.30;;;;;;;-1.98;100.00;100975.81;87816;277;546179;-69
2023/12/08 05:13:28;;;;;;;13.70;8.10;;;;;;;-2.03;100.00;100979.42;88114;276;137377;-70
2023/12/08 05:15:30;;;;;;;9.90;7.90;;;;;;;-2.11;100.00;100981.60;88171;276;22484;-70
2023/12/08 05:17:32;;;;;;;8.90;8.00;;;;;;;-2.17;100.00;100976.73;88038;275;135735;-71
2023/12/08 05:19:34;;;;;;;12.20;8.00;;;;;;;-2.19;100.00;100974.73;88483;275;22669;-70
2023/12/08 05:21:37;;;;;;;12.30;8.40;;;;;;;-2.18;100.00;100976.64;88148;275;136697;-70
2023/12/08 05:23:38;;;;;;;10.20;7.20;;;;;;;-2.16;100.00;100976.84;88218;275;22535;-67
2023/12/08 05:25:40;;;;;;;10.60;6.70;;;;;;;-2.15;100.00;100979.41;88148;275;136883;-70
2023/12/08 05:27:42;;;;;;;7.60;6.80;;;;;;;-2.13;100.00;100978.65;88280;276;21531;-71
2023/12/08 05:29:44;;;;;;;7.20;6.40;;;;;;;-2.11;100.00;100975.34;88327;275;136707;-70
2023/12/08 05:31:46;;;;;;;8.90;6.90;;;;;;;-2.09;100.00;100984.46;88360;275;25130;-71
2023/12/08 05:33:48;;;;;;;8.60;6.50;;;;;;;-2.08;100.00;100984.20;88374;274;135981;-67
2023/12/08 05:35:51;;;;;;;10.20;7.50;;;;;;;-2.11;100.00;100987.55;88512;272;23722;-69
2023/12/08 05:37:53;;;;;;;11.90;7.80;;;;;;;-2.18;100.00;100990.71;88706;276;135752;-66
2023/12/08 05:39:55;;;;;;;10.00;7.40;;;;;;;-2.32;100.00;100970.14;88589;272;23979;-65
2023/12/08 05:41:57;;;;;;;11.30;8.10;;;;;;;-2.24;100.00;100988.10;88533;272;136340;-71
2023/12/08 05:43:59;;;;;;;9.30;7.40;;;;;;;-2.19;100.00;100986.45;88551;274;25284;-68
2023/12/08 05:46:02;;;;;;;10.70;7.30;;;;;;;-2.17;100.00;100991.00;88721;272;136464;-68
2023/12/08 05:48:04;;;;;;;8.80;7.90;;;;;;;-2.17;100.00;100987.52;88709;272;137075;-67
2023/12/08 05:50:07;;;;;;;11.30;7.60;;;;;;;-2.17;100.00;100982.83;88632;273;22580;-69
2023/12/08 05:52:09;;;;;;;8.50;7.30;;;;;;;-2.16;100.00;100989.39;88488;272;136671;-71
2023/12/08 05:54:11;;;;;;;10.40;7.80;;;;;;;-2.14;100.00;100987.72;88669;271;22523;-68
2023/12/08 05:56:14;;;;;;;8.90;6.60;;;;;;;-2.12;100.00;100979.60;88592;271;138106;-71
2023/12/08 05:58:16;;;;;;;7.30;6.10;;;;;;;-2.16;100.00;100976.84;88538;272;23676;-70
2023/12/08 06:00:20;;;;;;;10.60;7.80;;;;;;;-2.20;100.00;100977.48;88784;272;136209;-66
2023/12/08 06:02:22;;;;;;;20.10;8.10;;;;;;;-2.25;100.00;100978.46;88653;275;22662;-68
2023/12/08 06:04:26;;;;;;;8.70;7.20;;;;;;;-2.25;100.00;100988.55;88549;271;136814;-70
2023/12/08 06:06:28;;;;;;;8.30;7.10;;;;;;;-2.22;100.00;100980.68;88510;272;25092;-70
2023/12/08 06:08:31;;;;;;;7.20;6.00;;;;;;;-2.20;100.00;100981.80;88428;271;136661;-71
2023/12/08 06:10:33;;;;;;;7.10;6.20;;;;;;;-2.20;100.00;100985.59;88631;272;24054;-70
2023/12/08 06:12:35;;;;;;;7.40;6.60;;;;;;;-2.19;100.00;100984.54;88309;274;142010;-70
2023/12/08 06:14:38;;;;;;;6.80;5.80;;;;;;;-2.17;100.00;100998.69;88783;271;24885;-73
2023/12/08 06:16:40;;;;;;;7.70;6.50;;;;;;;-2.16;100.00;100996.35;88599;279;138183;-71
2023/12/08 06:18:42;;;;;;;10.00;7.60;;;;;;;-2.14;100.00;101000.30;88433;280;22533;-71
2023/12/08 06:20:44;;;;;;;9.80;7.40;;;;;;;-2.14;100.00;100997.83;88338;273;136784;-73
2023/12/08 06:22:46;;;;;;;9.20;7.00;;;;;;;-2.13;100.00;100994.98;88527;277;22538;-71
2023/12/08 06:24:48;;;;;;;9.40;6.70;;;;;;;-2.15;100.00;100996.48;88472;279;135867;-71
2023/12/08 06:26:50;;;;;;;7.60;6.50;;;;;;;-2.19;100.00;101003.30;88573;272;23865;-72
2023/12/08 06:28:53;;;;;;;8.30;7.00;;;;;;;-2.21;100.00;100999.43;88303;277;135842;-72
2023/12/08 06:30:54;;;;;;;9.40;6.30;;;;;;;-2.20;100.00;100998.02;88668;272;25096;-65
2023/12/08 06:32:57;;;;;;;9.10;6.50;;;;;;;-2.18;100.00;100998.58;88861;280;136657;-66
2023/12/08 06:34:59;;;;;;;8.30;7.00;;;;;;;-2.18;100.00;101003.60;88787;277;26173;-68
2023/12/08 06:37:02;;;;;;;9.20;6.70;;;;;;;-2.17;100.00;101005.64;89216;277;136271;-69
2023/12/08 06:39:04;;;;;;;9.20;6.70;;;;;;;-2.16;100.00;100995.66;88529;280;25189;-71
2023/12/08 06:41:07;;;;;;;10.20;7.30;;;;;;;-2.14;100.00;100999.23;88352;272;136567;-70
2023/12/08 06:43:09;;;;;;;9.20;7.20;;;;;;;-2.12;100.00;100990.93;88494;278;22543;-71
2023/12/08 06:45:13;;;;;;;10.50;5.90;;;;;;;-2.10;100.00;100998.12;88440;279;136294;-69
2023/12/08 06:47:15;;;;;;;7.90;6.60;;;;;;;-2.08;100.00;100995.94;88664;279;22515;-68
2023/12/08 06:49:17;;;;;;;8.90;6.60;;;;;;;-2.09;100.00;100996.30;88299;272;136870;-69
2023/12/08 06:51:20;;;;;;;8.50;7.10;;;;;;;-2.12;100.00;100989.52;89694;281;23954;-69
2023/12/08 06:53:22;;;;;;;10.30;7.70;;;;;;;-2.13;100.00;100992.05;88442;276;135993;-72
2023/12/08 06:55:23;;;;;;;9.80;7.30;;;;;;;-2.13;100.00;101001.27;88567;278;23642;-69
2023/12/08 06:57:25;;;;;;;8.10;6.10;;;;;;;-2.11;100.00;100990.52;88431;273;138027;-64
2023/12/08 06:59:28;;;;;;;9.70;7.30;;;;;;;-2.16;100.00;100977.24;88422;280;24014;-67
2023/12/08 07:01:31;;;;;;;10.20;7.10;;;;;;;-2.02;100.00;100993.65;88400;272;138127;-68
2023/12/08 07:03:33;;;;;;;8.60;7.10;;;;;;;-1.97;100.00;100990.22;88560;272;22531;-67
2023/12/08 07:05:35;;;;;;;8.00;6.50;;;;;;;-1.98;100.00;100988.83;88483;277;136052;-67
2023/12/08 07:07:37;;;;;;;7.90;6.90;;;;;;;-2.01;100.00;100999.15;88650;276;22523;-71
2023/12/08 07:09:39;;;;;;;12.30;8.00;;;;;;;-2.04;100.00;100988.33;88373;279;136090;-70
2023/12/08 07:11:41;;;;;;;11.20;7.20;;;;;;;-2.04;100.00;100987.84;88426;279;22526;-64
2023/12/08 07:13:43;;;;;;;8.90;6.90;;;;;;;-2.00;100.00;100995.45;88500;278;136698;-65
2023/12/08 07:15:45;;;;;;;7.10;6.30;;;;;;;-1.95;100.00;100992.33;88469;272;24031;-70
2023/12/08 07:17:47;;;;;;;9.00;7.20;;;;;;;-1.91;100.00;100996.48;88332;276;137879;-69
2023/12/08 07:19:49;;;;;;;9.00;6.80;;;;;;;-1.90;100.00;100993.77;88454;276;22524;-66
2023/12/08 07:21:52;;;;;;;8.00;7.10;;;;;;;-1.88;100.00;100995.27;88393;277;136665;-67
2023/12/08 07:23:54;;;;;;;7.00;6.20;;;;;;;-1.89;100.00;100989.23;88605;274;22545;-70
2023/12/08 07:25:56;;;;;;;8.50;6.40;;;;;;;-1.89;100.00;100989.73;88429;272;137445;-64
2023/12/08 07:27:58;;;;;;;7.70;6.50;;;;;;;-1.92;100.00;100991.47;88514;276;22525;-71
2023/12/08 07:30:03;;;;;;;10.00;7.80;;;;;;;-1.95;100.00;100985.40;88389;272;135649;-70
2023/12/08 07:32:06;;;;;;;7.60;6.30;;;;;;;-1.99;100.00;100987.69;88424;272;136249;-69
2023/12/08 07:34:09;;;;;;;9.90;7.30;;;;;;;-1.96;100.00;100982.79;88384;277;22915;-68
2023/12/08 07:36:11;;;;;;;9.30;6.10;;;;;;;-1.91;100.00;100985.48;88436;275;136710;-70
2023/12/08 07:38:13;;;;;;;9.70;7.00;;;;;;;-1.85;100.00;100993.85;88617;272;22538;-70
2023/12/08 07:40:15;;;;;;;11.80;6.60;;;;;;;-1.81;100.00;100994.31;88319;274;141405;-69
2023/12/08 07:42:20;;;;;;;10.30;7.40;;;;;;;-1.78;100.00;100995.52;88674;276;25188;-69
2023/12/08 07:44:22;;;;;;;10.10;6.90;;;;;;;-1.75;100.00;100992.20;88299;276;137175;-65
2023/12/08 07:46:24;;;;;;;9.50;6.70;;;;;;;-1.71;100.00;100996.83;88728;272;24061;-65
2023/12/08 07:48:27;;;;;;;8.40;7.10;;;;;;;-1.71;100.00;100990.54;88440;273;136525;-68
2023/12/08 07:50:30;;;;;;;9.70;7.40;;;;;;;-1.75;100.00;100985.72;88699;273;22566;-63
2023/12/08 07:52:32;;;;;;;9.60;7.30;;;;;;;-1.78;100.00;100986.11;88410;272;136036;-65
2023/12/08 07:54:34;;;;;;;8.80;7.30;;;;;;;-1.80;100.00;100982.74;88517;272;22548;-65
2023/12/08 07:56:36;;;;;;;7.30;6.50;;;;;;;-1.76;100.00;100984.55;88443;276;136720;-66
2023/12/08 07:58:39;;;;;;;8.20;6.70;;;;;;;-1.69;100.00;100981.73;88476;271;25264;-67
2023/12/08 08:00:43;;;;;;;14.70;7.30;;;;;;;-1.65;100.00;100983.38;88525;276;136867;-67
2023/12/08 08:02:45;;;;;;;7.50;6.30;;;;;;;-1.60;100.00;100985.70;88660;276;25186;-67
2023/12/08 08:04:47;;;;;;;8.90;6.70;;;;;;;-1.56;100.00;100986.31;88405;281;136655;-68
2023/12/08 08:06:49;;;;;;;8.10;6.10;;;;;;;-1.53;100.00;100981.13;88592;276;22638;-67
2023/12/08 08:08:52;;;;;;;7.80;6.50;;;;;;;-1.50;100.00;100976.02;88565;271;136264;-64
2023/12/08 08:10:54;;;;;;;11.80;7.30;;;;;;;-1.49;100.00;100978.24;88402;282;23447;-65
2023/12/08 08:12:56;;;;;;;9.00;7.50;;;;;;;-1.52;100.00;100972.49;88483;272;136390;-69
2023/12/08 08:14:57;;;;;;;9.40;7.20;;;;;;;-1.54;100.00;100978.52;88453;281;23189;-66
2023/12/08 08:17:01;;;;;;;8.50;7.10;;;;;;;-1.52;100.00;100973.19;88439;276;137917;-66
2023/12/08 08:19:03;;;;;;;7.20;6.50;;;;;;;-1.48;100.00;100974.51;88766;279;22991;-67
2023/12/08 08:21:06;;;;;;;7.50;6.40;;;;;;;-1.42;100.00;100967.83;88413;279;136695;-67
2023/12/08 08:23:07;;;;;;;7.10;6.40;;;;;;;-1.38;100.00;100969.51;88464;279;23982;-67
2023/12/08 08:25:10;;;;;;;7.60;6.50;;;;;;;-1.34;100.00;100967.06;88443;271;138153;-71
2023/12/08 08:27:12;;;;;;;10.10;6.50;;;;;;;-1.34;100.00;100965.67;88655;279;22520;-71
2023/12/08 08:29:14;;;;;;;9.60;6.90;;;;;;;-1.38;100.00;100967.59;88448;279;137722;-70
2023/12/08 08:31:18;;;;;;;9.10;7.20;;;;;;;-1.40;100.00;100961.81;89960;276;25740;-65
2023/12/08 08:33:20;;;;;;;8.50;6.50;;;;;;;-1.40;100.00;100955.73;89594;272;137242;-65
2023/12/08 08:35:22;;;;;;;9.40;7.40;;;;;;;-1.38;100.00;100955.77;88770;276;25261;-65
2023/12/08 08:37:26;;;;;;;9.70;7.70;;;;;;;-1.32;100.00;100948.23;88464;276;137136;-65
2023/12/08 08:39:29;;;;;;;9.30;6.80;;;;;;;-1.25;100.00;100956.38;88575;272;22549;-67
2023/12/08 08:41:31;;;;;;;8.80;7.00;;;;;;;-1.21;100.00;100949.48;88478;280;138939;-69
2023/12/08 08:43:32;;;;;;;7.80;6.50;;;;;;;-1.16;100.00;100950.05;88515;272;25280;-66
2023/12/08 08:45:34;;;;;;;8.70;6.50;;;;;;;-1.12;100.00;100952.88;88466;272;136432;-63
2023/12/08 08:47:37;;;;;;;9.00;6.70;;;;;;;-1.11;100.00;100951.44;88628;272;23625;-66
2023/12/08 08:49:39;;;;;;;9.50;7.20;;;;;;;-1.13;100.00;100949.65;88507;277;136589;-64
2023/12/08 08:51:43;;;;;;;11.30;7.00;;;;;;;-1.18;100.00;100947.71;88496;280;24015;-66
2023/12/08 08:53:45;;;;;;;12.50;6.20;;;;;;;-1.23;100.00;100951.86;88415;271;138163;-66
2023/12/08 08:55:48;;;;;;;8.00;7.10;;;;;;;-1.21;100.00;100952.60;88639;271;25143;-67
2023/12/08 08:57:50;;;;;;;7.80;6.80;;;;;;;-1.16;100.00;100947.80;88421;274;136773;-68
2023/12/08 08:59:52;;;;;;;7.80;6.10;;;;;;;-1.14;100.00;100947.63;88629;272;22541;-66
2023/12/08 09:01:55;;;;;;;7.70;6.20;;;;;;;-1.11;100.00;100951.45;88412;272;136962;-70
2023/12/08 09:03:57;;;;;;;7.60;6.10;;;;;;;-1.08;100.00;100947.41;88462;278;23810;-67
2023/12/08 09:05:59;;;;;;;6.00;5.40;;;;;;;-1.05;100.00;100944.41;88462;276;135856;-72
2023/12/08 09:08:01;;;;;;;8.50;6.90;;;;;;;-1.05;100.00;100947.06;88405;273;23121;-68
2023/12/08 09:10:06;;;;;;;7.60;6.40;;;;;;;-1.08;100.00;100949.02;88606;271;22540;-70
2023/12/08 09:12:09;;;;;;;8.40;6.20;;;;;;;-1.11;100.00;100942.20;89845;279;138113;-66
2023/12/08 09:14:11;;;;;;;10.30;7.10;;;;;;;-1.06;100.00;100945.36;88495;272;22508;-64
2023/12/08 09:16:14;;;;;;;6.60;5.90;;;;;;;-0.99;100.00;100945.64;88280;279;138298;-66
2023/12/08 09:18:16;;;;;;;10.00;6.30;;;;;;;-0.96;100.00;100951.35;88469;280;25166;-71
2023/12/08 09:20:18;;;;;;;7.80;6.70;;;;;;;-0.98;100.00;100939.45;88419;273;138617;-66
2023/12/08 09:22:20;;;;;;;8.90;6.90;;;;;;;-0.99;100.00;100935.64;88516;272;25099;-68